Terminal Aerodrome Forecast
Issued by NWS

Home | Current Version | Previous Version | Text Only | Print | Product List | Glossary Off
Versions: 1 2 3 4 5 6 7 8 9 10 11 12

340
FTUS42 KTBW 211720
TAFPIE
TAF
KPIE 211720Z 2118/2218 04006KT P6SM FEW050 SCT250
     FM212100 36008KT P6SM FEW050 SCT250
     FM220200 08006KT P6SM FEW250
     FM221400 06007KT P6SM FEW020 SCT250=

USA.gov is the U.S. government's official web portal to all federal, state and local government web resources and services.